sensor_id;sensor_type;location;lat;lon;timestamp;P1;durP1;ratioP1;P2;durP2;ratioP2
52124;SDS011;38119;52.710;6.398;2023-03-01T00:02:12;20.13;;;12.23;;
52124;SDS011;38119;52.710;6.398;2023-03-01T00:04:38;19.98;;;12.50;;
52124;SDS011;38119;52.710;6.398;2023-03-01T00:07:04;22.73;;;13.38;;
52124;SDS011;38119;52.710;6.398;2023-03-01T00:09:29;20.50;;;13.25;;
52124;SDS011;38119;52.710;6.398;2023-03-01T00:11:55;22.27;;;12.95;;
52124;SDS011;38119;52.710;6.398;2023-03-01T00:14:20;22.40;;;12.57;;
52124;SDS011;38119;52.710;6.398;2023-03-01T00:16:46;22.02;;;13.05;;
52124;SDS011;38119;52.710;6.398;2023-03-01T00:19:13;20.73;;;13.57;;
52124;SDS011;38119;52.710;6.398;2023-03-01T00:21:40;20.90;;;12.50;;
52124;SDS011;38119;52.710;6.398;2023-03-01T00:24:06;19.65;;;13.80;;
52124;SDS011;38119;52.710;6.398;2023-03-01T00:26:32;21.27;;;13.48;;
52124;SDS011;38119;52.710;6.398;2023-03-01T00:28:58;21.30;;;13.07;;
52124;SDS011;38119;52.710;6.398;2023-03-01T00:31:28;19.30;;;12.25;;
52124;SDS011;38119;52.710;6.398;2023-03-01T00:33:55;21.30;;;13.05;;
52124;SDS011;38119;52.710;6.398;2023-03-01T00:36:23;22.50;;;13.80;;
52124;SDS011;38119;52.710;6.398;2023-03-01T00:38:54;22.90;;;14.85;;
52124;SDS011;38119;52.710;6.398;2023-03-01T00:41:20;23.88;;;14.60;;
52124;SDS011;38119;52.710;6.398;2023-03-01T00:43:51;26.65;;;14.02;;
52124;SDS011;38119;52.710;6.398;2023-03-01T00:46:19;22.65;;;14.50;;
52124;SDS011;38119;52.710;6.398;2023-03-01T00:48:46;23.15;;;15.02;;
52124;SDS011;38119;52.710;6.398;2023-03-01T00:51:19;22.77;;;14.30;;
52124;SDS011;38119;52.710;6.398;2023-03-01T00:53:47;22.58;;;14.32;;
52124;SDS011;38119;52.710;6.398;2023-03-01T00:56:16;26.77;;;15.23;;
52124;SDS011;38119;52.710;6.398;2023-03-01T00:58:41;27.17;;;14.25;;
52124;SDS011;38119;52.710;6.398;2023-03-01T01:01:11;24.50;;;15.20;;
52124;SDS011;38119;52.710;6.398;2023-03-01T01:03:50;27.08;;;14.85;;
52124;SDS011;38119;52.710;6.398;2023-03-01T01:06:21;26.83;;;15.60;;
52124;SDS011;38119;52.710;6.398;2023-03-01T01:08:50;25.42;;;14.85;;
52124;SDS011;38119;52.710;6.398;2023-03-01T01:11:16;22.92;;;15.18;;
52124;SDS011;38119;52.710;6.398;2023-03-01T01:13:43;25.10;;;14.55;;
52124;SDS011;38119;52.710;6.398;2023-03-01T01:16:10;24.50;;;14.55;;
52124;SDS011;38119;52.710;6.398;2023-03-01T01:18:35;22.98;;;14.35;;
52124;SDS011;38119;52.710;6.398;2023-03-01T01:21:05;26.02;;;14.82;;
52124;SDS011;38119;52.710;6.398;2023-03-01T01:23:39;26.83;;;14.75;;
52124;SDS011;38119;52.710;6.398;2023-03-01T01:26:16;23.25;;;13.88;;
52124;SDS011;38119;52.710;6.398;2023-03-01T01:28:47;23.15;;;14.00;;
52124;SDS011;38119;52.710;6.398;2023-03-01T01:31:13;25.85;;;15.32;;
52124;SDS011;38119;52.710;6.398;2023-03-01T01:33:39;23.27;;;14.57;;
52124;SDS011;38119;52.710;6.398;2023-03-01T01:36:06;23.77;;;14.82;;
52124;SDS011;38119;52.710;6.398;2023-03-01T01:38:33;24.25;;;14.95;;
52124;SDS011;38119;52.710;6.398;2023-03-01T01:40:59;22.70;;;14.77;;
52124;SDS011;38119;52.710;6.398;2023-03-01T01:43:27;24.77;;;14.40;;
52124;SDS011;38119;52.710;6.398;2023-03-01T01:45:59;24.42;;;14.77;;
52124;SDS011;38119;52.710;6.398;2023-03-01T01:48:32;24.50;;;15.05;;
52124;SDS011;38119;52.710;6.398;2023-03-01T01:51:05;24.08;;;14.80;;
52124;SDS011;38119;52.710;6.398;2023-03-01T01:53:36;25.45;;;15.35;;
52124;SDS011;38119;52.710;6.398;2023-03-01T01:56:03;27.15;;;15.00;;
52124;SDS011;38119;52.710;6.398;2023-03-01T01:58:31;28.90;;;15.05;;
52124;SDS011;38119;52.710;6.398;2023-03-01T02:00:57;25.83;;;15.45;;
52124;SDS011;38119;52.710;6.398;2023-03-01T02:03:24;26.67;;;15.05;;
52124;SDS011;38119;52.710;6.398;2023-03-01T02:08:32;23.92;;;14.73;;
52124;SDS011;38119;52.710;6.398;2023-03-01T02:11:02;24.20;;;15.10;;
52124;SDS011;38119;52.710;6.398;2023-03-01T02:13:33;26.75;;;16.00;;
52124;SDS011;38119;52.710;6.398;2023-03-01T02:16:02;27.90;;;15.05;;
52124;SDS011;38119;52.710;6.398;2023-03-01T02:18:29;25.83;;;15.07;;
52124;SDS011;38119;52.710;6.398;2023-03-01T02:21:01;30.05;;;15.95;;
52124;SDS011;38119;52.710;6.398;2023-03-01T02:23:52;26.60;;;15.90;;
52124;SDS011;38119;52.710;6.398;2023-03-01T02:26:23;26.50;;;15.43;;
52124;SDS011;38119;52.710;6.398;2023-03-01T02:29:05;23.85;;;15.30;;
52124;SDS011;38119;52.710;6.398;2023-03-01T02:31:31;25.67;;;15.25;;
52124;SDS011;38119;52.710;6.398;2023-03-01T02:34:18;26.63;;;15.32;;
52124;SDS011;38119;52.710;6.398;2023-03-01T02:37:08;26.88;;;15.38;;
52124;SDS011;38119;52.710;6.398;2023-03-01T02:39:38;28.52;;;16.08;;
52124;SDS011;38119;52.710;6.398;2023-03-01T02:42:07;26.08;;;16.05;;
52124;SDS011;38119;52.710;6.398;2023-03-01T02:47:05;26.55;;;15.48;;
52124;SDS011;38119;52.710;6.398;2023-03-01T02:49:32;27.58;;;16.13;;
52124;SDS011;38119;52.710;6.398;2023-03-01T02:57:34;25.70;;;14.82;;
52124;SDS011;38119;52.710;6.398;2023-03-01T03:00:07;25.70;;;15.02;;
52124;SDS011;38119;52.710;6.398;2023-03-01T03:02:44;26.13;;;15.02;;
52124;SDS011;38119;52.710;6.398;2023-03-01T03:05:18;24.25;;;14.07;;
52124;SDS011;38119;52.710;6.398;2023-03-01T03:07:52;24.13;;;13.85;;
52124;SDS011;38119;52.710;6.398;2023-03-01T03:10:23;21.10;;;13.15;;
52124;SDS011;38119;52.710;6.398;2023-03-01T03:12:57;20.42;;;12.57;;
52124;SDS011;38119;52.710;6.398;2023-03-01T03:15:28;23.55;;;14.10;;
52124;SDS011;38119;52.710;6.398;2023-03-01T03:17:55;22.60;;;14.80;;
52124;SDS011;38119;52.710;6.398;2023-03-01T03:20:23;26.65;;;14.90;;
52124;SDS011;38119;52.710;6.398;2023-03-01T03:22:52;27.65;;;15.57;;
52124;SDS011;38119;52.710;6.398;2023-03-01T03:25:19;26.67;;;16.13;;
52124;SDS011;38119;52.710;6.398;2023-03-01T03:27:47;29.75;;;16.73;;
52124;SDS011;38119;52.710;6.398;2023-03-01T03:30:18;31.45;;;17.80;;
52124;SDS011;38119;52.710;6.398;2023-03-01T03:32:45;30.27;;;17.02;;
52124;SDS011;38119;52.710;6.398;2023-03-01T03:35:17;28.40;;;16.67;;
52124;SDS011;38119;52.710;6.398;2023-03-01T03:38:03;28.55;;;16.13;;
52124;SDS011;38119;52.710;6.398;2023-03-01T03:40:38;28.38;;;16.73;;
52124;SDS011;38119;52.710;6.398;2023-03-01T03:43:13;24.92;;;15.43;;
52124;SDS011;38119;52.710;6.398;2023-03-01T03:45:40;28.60;;;17.55;;
52124;SDS011;38119;52.710;6.398;2023-03-01T03:48:08;28.65;;;16.77;;
52124;SDS011;38119;52.710;6.398;2023-03-01T03:50:35;28.83;;;17.30;;
52124;SDS011;38119;52.710;6.398;2023-03-01T03:53:02;29.23;;;18.13;;
52124;SDS011;38119;52.710;6.398;2023-03-01T03:55:29;27.80;;;16.48;;
52124;SDS011;38119;52.710;6.398;2023-03-01T03:57:56;27.48;;;16.42;;
52124;SDS011;38119;52.710;6.398;2023-03-01T04:00:27;25.42;;;16.35;;
52124;SDS011;38119;52.710;6.398;2023-03-01T04:02:53;25.42;;;16.27;;
52124;SDS011;38119;52.710;6.398;2023-03-01T04:05:21;29.10;;;17.38;;
52124;SDS011;38119;52.710;6.398;2023-03-01T04:07:47;25.02;;;16.05;;
52124;SDS011;38119;52.710;6.398;2023-03-01T04:10:14;27.92;;;16.83;;
52124;SDS011;38119;52.710;6.398;2023-03-01T04:12:42;28.17;;;17.42;;
52124;SDS011;38119;52.710;6.398;2023-03-01T04:15:08;28.58;;;17.25;;
52124;SDS011;38119;52.710;6.398;2023-03-01T04:17:46;29.73;;;16.92;;
52124;SDS011;38119;52.710;6.398;2023-03-01T04:20:16;34.75;;;19.60;;
52124;SDS011;38119;52.710;6.398;2023-03-01T04:22:52;34.20;;;18.77;;
52124;SDS011;38119;52.710;6.398;2023-03-01T04:25:36;34.85;;;19.73;;
52124;SDS011;38119;52.710;6.398;2023-03-01T04:28:06;35.10;;;18.92;;
52124;SDS011;38119;52.710;6.398;2023-03-01T04:30:33;33.60;;;18.10;;
52124;SDS011;38119;52.710;6.398;2023-03-01T04:33:04;33.13;;;18.45;;
52124;SDS011;38119;52.710;6.398;2023-03-01T04:35:30;36.47;;;19.98;;
52124;SDS011;38119;52.710;6.398;2023-03-01T04:37:57;33.53;;;18.02;;
52124;SDS011;38119;52.710;6.398;2023-03-01T04:40:22;34.10;;;17.23;;
52124;SDS011;38119;52.710;6.398;2023-03-01T04:42:48;31.25;;;17.98;;
52124;SDS011;38119;52.710;6.398;2023-03-01T04:45:14;29.88;;;16.75;;
52124;SDS011;38119;52.710;6.398;2023-03-01T04:47:43;27.95;;;16.25;;
52124;SDS011;38119;52.710;6.398;2023-03-01T04:50:11;28.95;;;16.40;;
52124;SDS011;38119;52.710;6.398;2023-03-01T04:52:39;30.08;;;16.92;;
52124;SDS011;38119;52.710;6.398;2023-03-01T04:55:05;31.15;;;16.88;;
52124;SDS011;38119;52.710;6.398;2023-03-01T04:57:31;27.77;;;16.55;;
52124;SDS011;38119;52.710;6.398;2023-03-01T04:59:57;28.15;;;16.70;;
52124;SDS011;38119;52.710;6.398;2023-03-01T05:02:22;31.70;;;17.45;;
52124;SDS011;38119;52.710;6.398;2023-03-01T05:04:48;27.42;;;15.77;;
52124;SDS011;38119;52.710;6.398;2023-03-01T05:07:14;24.65;;;15.23;;
52124;SDS011;38119;52.710;6.398;2023-03-01T05:09:46;25.08;;;13.80;;
52124;SDS011;38119;52.710;6.398;2023-03-01T05:12:12;21.45;;;13.05;;
52124;SDS011;38119;52.710;6.398;2023-03-01T05:14:38;24.80;;;14.27;;
52124;SDS011;38119;52.710;6.398;2023-03-01T05:17:04;26.55;;;15.68;;
52124;SDS011;38119;52.710;6.398;2023-03-01T05:19:30;26.77;;;14.88;;
52124;SDS011;38119;52.710;6.398;2023-03-01T05:21:57;28.73;;;16.00;;
52124;SDS011;38119;52.710;6.398;2023-03-01T05:24:29;29.88;;;16.48;;
52124;SDS011;38119;52.710;6.398;2023-03-01T05:26:57;29.27;;;16.35;;
52124;SDS011;38119;52.710;6.398;2023-03-01T05:29:23;28.45;;;16.70;;
52124;SDS011;38119;52.710;6.398;2023-03-01T05:31:54;29.85;;;17.10;;
52124;SDS011;38119;52.710;6.398;2023-03-01T05:34:24;32.70;;;15.85;;
52124;SDS011;38119;52.710;6.398;2023-03-01T05:36:50;28.90;;;16.45;;
52124;SDS011;38119;52.710;6.398;2023-03-01T05:39:18;28.02;;;15.57;;
52124;SDS011;38119;52.710;6.398;2023-03-01T05:41:46;28.13;;;16.58;;
52124;SDS011;38119;52.710;6.398;2023-03-01T05:44:12;28.02;;;15.85;;
52124;SDS011;38119;52.710;6.398;2023-03-01T05:46:38;26.40;;;15.05;;
52124;SDS011;38119;52.710;6.398;2023-03-01T05:49:03;24.05;;;14.25;;
52124;SDS011;38119;52.710;6.398;2023-03-01T05:51:30;26.58;;;14.65;;
52124;SDS011;38119;52.710;6.398;2023-03-01T05:53:55;24.33;;;14.15;;
52124;SDS011;38119;52.710;6.398;2023-03-01T05:56:21;24.73;;;14.63;;
52124;SDS011;38119;52.710;6.398;2023-03-01T05:58:50;25.02;;;14.70;;
52124;SDS011;38119;52.710;6.398;2023-03-01T06:01:15;26.42;;;14.30;;
52124;SDS011;38119;52.710;6.398;2023-03-01T06:03:41;26.38;;;14.82;;
52124;SDS011;38119;52.710;6.398;2023-03-01T06:06:07;25.75;;;14.93;;
52124;SDS011;38119;52.710;6.398;2023-03-01T06:08:33;28.23;;;15.23;;
52124;SDS011;38119;52.710;6.398;2023-03-01T06:10:58;25.35;;;14.55;;
52124;SDS011;38119;52.710;6.398;2023-03-01T06:13:24;25.75;;;14.10;;
52124;SDS011;38119;52.710;6.398;2023-03-01T06:15:50;27.08;;;14.77;;
52124;SDS011;38119;52.710;6.398;2023-03-01T06:18:16;24.50;;;14.85;;
52124;SDS011;38119;52.710;6.398;2023-03-01T06:20:42;23.35;;;13.80;;
52124;SDS011;38119;52.710;6.398;2023-03-01T06:23:07;21.58;;;13.50;;
52124;SDS011;38119;52.710;6.398;2023-03-01T06:25:33;25.35;;;14.70;;
52124;SDS011;38119;52.710;6.398;2023-03-01T06:27:59;23.73;;;14.80;;
52124;SDS011;38119;52.710;6.398;2023-03-01T06:30:25;26.95;;;14.40;;
52124;SDS011;38119;52.710;6.398;2023-03-01T06:32:51;21.92;;;13.20;;
52124;SDS011;38119;52.710;6.398;2023-03-01T06:35:17;22.48;;;13.02;;
52124;SDS011;38119;52.710;6.398;2023-03-01T06:37:44;22.67;;;13.82;;
52124;SDS011;38119;52.710;6.398;2023-03-01T06:40:12;22.65;;;13.50;;
52124;SDS011;38119;52.710;6.398;2023-03-01T06:42:39;25.20;;;14.32;;
52124;SDS011;38119;52.710;6.398;2023-03-01T06:45:06;23.33;;;14.45;;
52124;SDS011;38119;52.710;6.398;2023-03-01T06:47:34;24.95;;;14.45;;
52124;SDS011;38119;52.710;6.398;2023-03-01T06:50:00;21.83;;;14.00;;
52124;SDS011;38119;52.710;6.398;2023-03-01T06:52:25;24.50;;;14.63;;
52124;SDS011;38119;52.710;6.398;2023-03-01T06:54:51;28.77;;;15.43;;
52124;SDS011;38119;52.710;6.398;2023-03-01T06:57:17;26.20;;;15.85;;
52124;SDS011;38119;52.710;6.398;2023-03-01T06:59:42;26.58;;;15.57;;
52124;SDS011;38119;52.710;6.398;2023-03-01T07:02:11;25.48;;;16.08;;
52124;SDS011;38119;52.710;6.398;2023-03-01T07:04:37;30.02;;;16.85;;
52124;SDS011;38119;52.710;6.398;2023-03-01T07:07:03;27.00;;;16.63;;
52124;SDS011;38119;52.710;6.398;2023-03-01T07:09:29;29.27;;;17.25;;
52124;SDS011;38119;52.710;6.398;2023-03-01T07:11:55;32.38;;;17.65;;
52124;SDS011;38119;52.710;6.398;2023-03-01T07:14:21;32.13;;;17.63;;
52124;SDS011;38119;52.710;6.398;2023-03-01T07:16:49;29.25;;;17.33;;
52124;SDS011;38119;52.710;6.398;2023-03-01T07:19:15;29.83;;;17.25;;
52124;SDS011;38119;52.710;6.398;2023-03-01T07:21:41;28.83;;;16.90;;
52124;SDS011;38119;52.710;6.398;2023-03-01T07:24:06;30.55;;;16.58;;
52124;SDS011;38119;52.710;6.398;2023-03-01T07:26:33;26.75;;;16.58;;
52124;SDS011;38119;52.710;6.398;2023-03-01T07:28:59;30.33;;;16.75;;
52124;SDS011;38119;52.710;6.398;2023-03-01T07:31:26;30.23;;;17.48;;
52124;SDS011;38119;52.710;6.398;2023-03-01T07:33:53;32.92;;;17.88;;
52124;SDS011;38119;52.710;6.398;2023-03-01T07:36:19;34.40;;;19.27;;
52124;SDS011;38119;52.710;6.398;2023-03-01T07:38:45;32.45;;;18.00;;
52124;SDS011;38119;52.710;6.398;2023-03-01T07:41:11;30.75;;;17.92;;
52124;SDS011;38119;52.710;6.398;2023-03-01T07:43:37;34.33;;;19.38;;
52124;SDS011;38119;52.710;6.398;2023-03-01T07:46:03;32.78;;;18.95;;
52124;SDS011;38119;52.710;6.398;2023-03-01T07:48:29;35.92;;;20.38;;
52124;SDS011;38119;52.710;6.398;2023-03-01T07:51:00;34.65;;;19.25;;
52124;SDS011;38119;52.710;6.398;2023-03-01T07:53:27;36.05;;;19.45;;
52124;SDS011;38119;52.710;6.398;2023-03-01T07:56:00;31.23;;;19.05;;
52124;SDS011;38119;52.710;6.398;2023-03-01T07:58:37;37.63;;;19.83;;
52124;SDS011;38119;52.710;6.398;2023-03-01T08:01:04;37.15;;;21.38;;
52124;SDS011;38119;52.710;6.398;2023-03-01T08:03:31;40.33;;;21.25;;
52124;SDS011;38119;52.710;6.398;2023-03-01T08:05:58;40.25;;;21.92;;
52124;SDS011;38119;52.710;6.398;2023-03-01T08:08:25;41.28;;;21.35;;
52124;SDS011;38119;52.710;6.398;2023-03-01T08:10:51;37.83;;;21.42;;
52124;SDS011;38119;52.710;6.398;2023-03-01T08:13:17;41.00;;;21.35;;
52124;SDS011;38119;52.710;6.398;2023-03-01T08:15:47;38.42;;;21.42;;
52124;SDS011;38119;52.710;6.398;2023-03-01T08:18:16;42.80;;;22.00;;
52124;SDS011;38119;52.710;6.398;2023-03-01T08:20:43;43.40;;;22.63;;
52124;SDS011;38119;52.710;6.398;2023-03-01T08:23:09;39.85;;;22.60;;
52124;SDS011;38119;52.710;6.398;2023-03-01T08:25:35;39.67;;;21.90;;
52124;SDS011;38119;52.710;6.398;2023-03-01T08:28:00;36.53;;;21.27;;
52124;SDS011;38119;52.710;6.398;2023-03-01T08:30:26;36.15;;;21.50;;
52124;SDS011;38119;52.710;6.398;2023-03-01T08:32:51;36.15;;;20.52;;
52124;SDS011;38119;52.710;6.398;2023-03-01T08:35:17;36.28;;;20.73;;
52124;SDS011;38119;52.710;6.398;2023-03-01T08:37:43;36.45;;;19.75;;
52124;SDS011;38119;52.710;6.398;2023-03-01T08:40:09;35.25;;;20.75;;
52124;SDS011;38119;52.710;6.398;2023-03-01T08:42:36;38.40;;;21.50;;
52124;SDS011;38119;52.710;6.398;2023-03-01T08:45:05;33.13;;;20.35;;
52124;SDS011;38119;52.710;6.398;2023-03-01T08:47:32;35.45;;;21.48;;
52124;SDS011;38119;52.710;6.398;2023-03-01T08:49:58;34.67;;;21.63;;
52124;SDS011;38119;52.710;6.398;2023-03-01T08:52:24;37.47;;;20.95;;
52124;SDS011;38119;52.710;6.398;2023-03-01T08:54:51;38.17;;;21.48;;
52124;SDS011;38119;52.710;6.398;2023-03-01T08:57:16;36.42;;;20.73;;
52124;SDS011;38119;52.710;6.398;2023-03-01T08:59:42;35.03;;;20.00;;
52124;SDS011;38119;52.710;6.398;2023-03-01T09:02:17;36.28;;;19.95;;
52124;SDS011;38119;52.710;6.398;2023-03-01T09:04:43;36.45;;;21.20;;
52124;SDS011;38119;52.710;6.398;2023-03-01T09:07:09;35.15;;;21.38;;
52124;SDS011;38119;52.710;6.398;2023-03-01T09:09:36;35.83;;;20.25;;
52124;SDS011;38119;52.710;6.398;2023-03-01T09:12:02;31.45;;;19.92;;
52124;SDS011;38119;52.710;6.398;2023-03-01T09:14:28;32.55;;;19.63;;
52124;SDS011;38119;52.710;6.398;2023-03-01T09:16:54;32.63;;;18.45;;
52124;SDS011;38119;52.710;6.398;2023-03-01T09:19:20;30.45;;;17.90;;
52124;SDS011;38119;52.710;6.398;2023-03-01T09:21:45;25.70;;;16.88;;
52124;SDS011;38119;52.710;6.398;2023-03-01T09:24:17;27.58;;;15.73;;
52124;SDS011;38119;52.710;6.398;2023-03-01T09:26:47;26.23;;;15.32;;
52124;SDS011;38119;52.710;6.398;2023-03-01T09:29:13;25.92;;;15.60;;
52124;SDS011;38119;52.710;6.398;2023-03-01T09:31:39;25.48;;;14.95;;
52124;SDS011;38119;52.710;6.398;2023-03-01T09:34:05;23.00;;;13.40;;
52124;SDS011;38119;52.710;6.398;2023-03-01T09:36:31;26.67;;;13.35;;
52124;SDS011;38119;52.710;6.398;2023-03-01T09:38:58;21.55;;;12.38;;
52124;SDS011;38119;52.710;6.398;2023-03-01T09:46:58;16.10;;;8.90;;
52124;SDS011;38119;52.710;6.398;2023-03-01T09:49:28;14.90;;;7.60;;
52124;SDS011;38119;52.710;6.398;2023-03-01T09:54:40;12.85;;;6.97;;
52124;SDS011;38119;52.710;6.398;2023-03-01T09:59:47;12.52;;;5.75;;
52124;SDS011;38119;52.710;6.398;2023-03-01T10:02:39;10.73;;;5.10;;
52124;SDS011;38119;52.710;6.398;2023-03-01T10:10:36;12.32;;;5.70;;
52124;SDS011;38119;52.710;6.398;2023-03-01T10:15:43;9.35;;;5.43;;
52124;SDS011;38119;52.710;6.398;2023-03-01T10:18:14;11.73;;;5.75;;
52124;SDS011;38119;52.710;6.398;2023-03-01T10:23:24;8.63;;;5.30;;
52124;SDS011;38119;52.710;6.398;2023-03-01T10:31:15;10.25;;;5.28;;
52124;SDS011;38119;52.710;6.398;2023-03-01T10:33:47;8.13;;;4.88;;
52124;SDS011;38119;52.710;6.398;2023-03-01T10:36:16;9.20;;;5.18;;
52124;SDS011;38119;52.710;6.398;2023-03-01T10:38:50;10.73;;;5.47;;
52124;SDS011;38119;52.710;6.398;2023-03-01T10:41:19;10.15;;;5.40;;
52124;SDS011;38119;52.710;6.398;2023-03-01T10:43:57;10.40;;;4.90;;
52124;SDS011;38119;52.710;6.398;2023-03-01T10:46:32;8.10;;;4.35;;
52124;SDS011;38119;52.710;6.398;2023-03-01T10:49:16;9.10;;;4.32;;
52124;SDS011;38119;52.710;6.398;2023-03-01T10:51:45;7.40;;;4.28;;
52124;SDS011;38119;52.710;6.398;2023-03-01T10:54:22;8.85;;;4.32;;
52124;SDS011;38119;52.710;6.398;2023-03-01T10:56:53;7.78;;;4.63;;
52124;SDS011;38119;52.710;6.398;2023-03-01T11:07:26;9.23;;;4.47;;
52124;SDS011;38119;52.710;6.398;2023-03-01T11:09:52;7.82;;;4.57;;
52124;SDS011;38119;52.710;6.398;2023-03-01T11:12:18;7.10;;;4.30;;
52124;SDS011;38119;52.710;6.398;2023-03-01T11:14:46;8.45;;;4.97;;
52124;SDS011;38119;52.710;6.398;2023-03-01T11:20:00;9.05;;;4.30;;
52124;SDS011;38119;52.710;6.398;2023-03-01T11:22:41;9.35;;;4.95;;
52124;SDS011;38119;52.710;6.398;2023-03-01T11:25:26;8.52;;;5.20;;
52124;SDS011;38119;52.710;6.398;2023-03-01T11:27:54;8.20;;;4.60;;
52124;SDS011;38119;52.710;6.398;2023-03-01T11:35:41;8.52;;;5.38;;
52124;SDS011;38119;52.710;6.398;2023-03-01T11:38:16;9.32;;;5.18;;
52124;SDS011;38119;52.710;6.398;2023-03-01T11:49:03;9.13;;;6.28;;
52124;SDS011;38119;52.710;6.398;2023-03-01T12:16:30;9.10;;;5.78;;
52124;SDS011;38119;52.710;6.398;2023-03-01T12:22:08;12.83;;;6.50;;
52124;SDS011;38119;52.710;6.398;2023-03-01T12:38:37;9.77;;;6.05;;
52124;SDS011;38119;52.710;6.398;2023-03-01T12:41:42;12.27;;;7.10;;
52124;SDS011;38119;52.710;6.398;2023-03-01T12:49:54;9.15;;;6.50;;
52124;SDS011;38119;52.710;6.398;2023-03-01T12:59:01;10.68;;;7.07;;
52124;SDS011;38119;52.710;6.398;2023-03-01T13:09:23;10.88;;;6.25;;
52124;SDS011;38119;52.710;6.398;2023-03-01T13:11:57;9.38;;;6.35;;
52124;SDS011;38119;52.710;6.398;2023-03-01T13:16:49;10.07;;;6.45;;
52124;SDS011;38119;52.710;6.398;2023-03-01T13:19:17;10.85;;;6.50;;
52124;SDS011;38119;52.710;6.398;2023-03-01T13:21:47;9.65;;;5.68;;
52124;SDS011;38119;52.710;6.398;2023-03-01T13:24:25;9.50;;;5.70;;
52124;SDS011;38119;52.710;6.398;2023-03-01T13:29:32;10.80;;;6.03;;
52124;SDS011;38119;52.710;6.398;2023-03-01T13:34:53;11.07;;;6.22;;
52124;SDS011;38119;52.710;6.398;2023-03-01T13:37:27;7.57;;;5.60;;
52124;SDS011;38119;52.710;6.398;2023-03-01T13:39:59;10.35;;;6.03;;
52124;SDS011;38119;52.710;6.398;2023-03-01T13:42:34;11.70;;;6.28;;
52124;SDS011;38119;52.710;6.398;2023-03-01T13:45:15;9.75;;;6.13;;
52124;SDS011;38119;52.710;6.398;2023-03-01T13:47:44;10.30;;;6.85;;
52124;SDS011;38119;52.710;6.398;2023-03-01T13:50:22;10.43;;;6.40;;
52124;SDS011;38119;52.710;6.398;2023-03-01T13:52:57;10.80;;;6.13;;
52124;SDS011;38119;52.710;6.398;2023-03-01T13:55:27;10.98;;;6.30;;
52124;SDS011;38119;52.710;6.398;2023-03-01T14:00:45;10.95;;;6.53;;
52124;SDS011;38119;52.710;6.398;2023-03-01T14:03:16;9.30;;;6.07;;
52124;SDS011;38119;52.710;6.398;2023-03-01T14:06:06;10.45;;;6.30;;
52124;SDS011;38119;52.710;6.398;2023-03-01T14:08:40;13.15;;;6.85;;
52124;SDS011;38119;52.710;6.398;2023-03-01T14:16:37;11.23;;;6.82;;
52124;SDS011;38119;52.710;6.398;2023-03-01T14:19:23;11.65;;;5.90;;
52124;SDS011;38119;52.710;6.398;2023-03-01T14:24:46;9.90;;;6.60;;
52124;SDS011;38119;52.710;6.398;2023-03-01T14:27:17;9.77;;;6.65;;
52124;SDS011;38119;52.710;6.398;2023-03-01T14:29:44;10.63;;;6.57;;
52124;SDS011;38119;52.710;6.398;2023-03-01T14:32:21;11.88;;;6.53;;
52124;SDS011;38119;52.710;6.398;2023-03-01T14:34:50;9.85;;;6.20;;
52124;SDS011;38119;52.710;6.398;2023-03-01T14:39:45;10.25;;;6.57;;
52124;SDS011;38119;52.710;6.398;2023-03-01T14:42:11;12.27;;;6.85;;
52124;SDS011;38119;52.710;6.398;2023-03-01T14:44:40;13.10;;;8.00;;
52124;SDS011;38119;52.710;6.398;2023-03-01T14:47:12;8.98;;;6.18;;
52124;SDS011;38119;52.710;6.398;2023-03-01T14:49:43;11.95;;;7.50;;
52124;SDS011;38119;52.710;6.398;2023-03-01T14:52:21;12.80;;;7.43;;
52124;SDS011;38119;52.710;6.398;2023-03-01T14:54:53;12.32;;;7.70;;
52124;SDS011;38119;52.710;6.398;2023-03-01T14:57:21;11.00;;;7.20;;
52124;SDS011;38119;52.710;6.398;2023-03-01T14:59:48;12.10;;;7.72;;
52124;SDS011;38119;52.710;6.398;2023-03-01T15:02:16;12.40;;;7.22;;
52124;SDS011;38119;52.710;6.398;2023-03-01T15:04:57;12.60;;;7.43;;
52124;SDS011;38119;52.710;6.398;2023-03-01T15:07:34;13.40;;;7.63;;
52124;SDS011;38119;52.710;6.398;2023-03-01T15:10:04;12.80;;;7.45;;
52124;SDS011;38119;52.710;6.398;2023-03-01T15:12:35;13.23;;;7.82;;
52124;SDS011;38119;52.710;6.398;2023-03-01T15:15:51;13.07;;;8.20;;
52124;SDS011;38119;52.710;6.398;2023-03-01T15:17:58;11.77;;;7.72;;
52124;SDS011;38119;52.710;6.398;2023-03-01T15:20:27;12.37;;;8.20;;
52124;SDS011;38119;52.710;6.398;2023-03-01T15:22:55;14.10;;;8.25;;
52124;SDS011;38119;52.710;6.398;2023-03-01T15:25:23;13.00;;;7.80;;
52124;SDS011;38119;52.710;6.398;2023-03-01T15:27:52;13.60;;;7.82;;
52124;SDS011;38119;52.710;6.398;2023-03-01T15:30:32;13.02;;;8.15;;
52124;SDS011;38119;52.710;6.398;2023-03-01T15:35:52;13.98;;;8.43;;
52124;SDS011;38119;52.710;6.398;2023-03-01T15:38:30;14.98;;;8.18;;
52124;SDS011;38119;52.710;6.398;2023-03-01T15:41:03;13.82;;;8.00;;
52124;SDS011;38119;52.710;6.398;2023-03-01T15:43:46;15.63;;;9.30;;
52124;SDS011;38119;52.710;6.398;2023-03-01T15:46:20;13.35;;;8.63;;
52124;SDS011;38119;52.710;6.398;2023-03-01T15:48:52;14.43;;;8.73;;
52124;SDS011;38119;52.710;6.398;2023-03-01T15:51:42;14.13;;;8.30;;
52124;SDS011;38119;52.710;6.398;2023-03-01T15:54:12;14.75;;;8.48;;
52124;SDS011;38119;52.710;6.398;2023-03-01T15:56:44;13.00;;;8.23;;
52124;SDS011;38119;52.710;6.398;2023-03-01T15:59:10;13.68;;;8.48;;
52124;SDS011;38119;52.710;6.398;2023-03-01T16:01:38;17.20;;;9.07;;
52124;SDS011;38119;52.710;6.398;2023-03-01T16:04:04;14.68;;;9.15;;
52124;SDS011;38119;52.710;6.398;2023-03-01T16:06:29;14.73;;;8.68;;
52124;SDS011;38119;52.710;6.398;2023-03-01T16:08:55;14.88;;;8.68;;
52124;SDS011;38119;52.710;6.398;2023-03-01T16:11:21;13.35;;;8.05;;
52124;SDS011;38119;52.710;6.398;2023-03-01T16:13:47;14.65;;;8.80;;
52124;SDS011;38119;52.710;6.398;2023-03-01T16:16:14;14.02;;;8.75;;
52124;SDS011;38119;52.710;6.398;2023-03-01T16:18:47;14.77;;;9.00;;
52124;SDS011;38119;52.710;6.398;2023-03-01T16:21:14;14.00;;;8.52;;
52124;SDS011;38119;52.710;6.398;2023-03-01T16:23:43;13.75;;;8.30;;
52124;SDS011;38119;52.710;6.398;2023-03-01T16:26:09;14.65;;;8.77;;
52124;SDS011;38119;52.710;6.398;2023-03-01T16:28:35;14.38;;;9.05;;
52124;SDS011;38119;52.710;6.398;2023-03-01T16:31:01;12.50;;;7.97;;
52124;SDS011;38119;52.710;6.398;2023-03-01T16:33:27;14.52;;;8.25;;
52124;SDS011;38119;52.710;6.398;2023-03-01T16:35:52;16.98;;;10.95;;
52124;SDS011;38119;52.710;6.398;2023-03-01T16:38:18;14.68;;;9.38;;
52124;SDS011;38119;52.710;6.398;2023-03-01T16:40:47;15.45;;;9.57;;
52124;SDS011;38119;52.710;6.398;2023-03-01T16:43:14;14.48;;;9.02;;
52124;SDS011;38119;52.710;6.398;2023-03-01T16:45:40;15.18;;;8.95;;
52124;SDS011;38119;52.710;6.398;2023-03-01T16:48:09;14.25;;;9.38;;
52124;SDS011;38119;52.710;6.398;2023-03-01T16:50:35;15.40;;;9.75;;
52124;SDS011;38119;52.710;6.398;2023-03-01T16:53:01;15.40;;;9.65;;
52124;SDS011;38119;52.710;6.398;2023-03-01T16:55:27;16.50;;;10.00;;
52124;SDS011;38119;52.710;6.398;2023-03-01T16:57:53;18.67;;;10.43;;
52124;SDS011;38119;52.710;6.398;2023-03-01T17:00:18;17.30;;;10.65;;
52124;SDS011;38119;52.710;6.398;2023-03-01T17:02:45;15.85;;;9.98;;
52124;SDS011;38119;52.710;6.398;2023-03-01T17:05:11;14.70;;;10.02;;
52124;SDS011;38119;52.710;6.398;2023-03-01T17:07:37;15.80;;;9.95;;